Time;durP1;ratioP1;P1;durP2;ratioP2;P2;SDS_P1;SDS_P2;PMS_P1;PMS_P2;Temp;Humidity;BMP_temperature;BMP_pressure;BME280_temperature;BME280_humidity;BME280_pressure;Samples;Min_cycle;Max_cycle;Signal;HPM_P1;HPM_P2
2023/02/13 00:01:10;;;;;;;18.67;11.88;;;8.00;99.90;;;;;;5051505;28;20130;-69
2023/02/13 00:03:35;;;;;;;21.58;13.55;;;8.00;99.90;;;;;;5051476;28;20044;-69
2023/02/13 00:06:01;;;;;;;20.13;12.18;;;8.00;99.90;;;;;;5051684;28;20040;-69
2023/02/13 00:08:27;;;;;;;25.92;13.00;;;7.80;99.90;;;;;;5051651;28;20132;-69
2023/02/13 00:10:52;;;;;;;22.90;13.18;;;7.80;99.90;;;;;;5051525;28;20040;-69
2023/02/13 00:13:18;;;;;;;23.08;12.80;;;7.80;99.90;;;;;;5050956;28;20041;-69
2023/02/13 00:15:43;;;;;;;22.10;13.88;;;7.80;99.90;;;;;;5051666;28;20037;-69
2023/02/13 00:18:09;;;;;;;23.63;13.57;;;7.80;99.90;;;;;;5051586;28;20059;-69
2023/02/13 00:20:34;;;;;;;20.75;13.13;;;7.70;99.90;;;;;;5051514;28;20500;-69
2023/02/13 00:23:00;;;;;;;22.45;13.77;;;7.90;99.90;;;;;;5051162;28;20507;-69
2023/02/13 00:25:25;;;;;;;22.27;13.02;;;7.80;99.90;;;;;;5051410;28;20041;-69
2023/02/13 00:27:52;;;;;;;19.48;12.27;;;7.80;99.90;;;;;;5051271;28;20037;-69
2023/02/13 00:30:19;;;;;;;19.80;12.15;;;7.90;99.90;;;;;;5051511;28;20048;-69
2023/02/13 00:32:44;;;;;;;19.65;12.52;;;8.00;99.90;;;;;;5050917;28;20413;-69
2023/02/13 00:35:10;;;;;;;20.15;12.50;;;7.80;99.90;;;;;;5051378;28;20128;-69
2023/02/13 00:37:35;;;;;;;19.63;12.52;;;8.00;99.90;;;;;;5051209;28;20385;-69
2023/02/13 00:40:01;;;;;;;22.73;12.48;;;8.00;99.90;;;;;;5051256;28;20040;-69
2023/02/13 00:42:27;;;;;;;19.05;11.48;;;8.00;99.90;;;;;;5050750;28;20389;-69
2023/02/13 00:44:53;;;;;;;19.15;12.30;;;7.90;99.90;;;;;;5051496;28;20033;-70
2023/02/13 00:47:18;;;;;;;18.60;12.10;;;8.00;99.90;;;;;;5051338;28;20041;-69
2023/02/13 00:49:44;;;;;;;18.92;12.27;;;7.90;99.90;;;;;;5051243;28;20048;-69
2023/02/13 00:52:09;;;;;;;21.75;12.95;;;8.00;99.90;;;;;;5054987;28;20054;-70
2023/02/13 00:54:35;;;;;;;19.38;13.20;;;7.80;99.90;;;;;;5055077;28;20048;-70
2023/02/13 00:57:01;;;;;;;19.33;11.38;;;8.00;99.90;;;;;;5054964;28;20037;-69
2023/02/13 00:59:26;;;;;;;20.23;12.30;;;7.90;99.90;;;;;;5055227;28;20400;-70
2023/02/13 01:01:52;;;;;;;20.70;12.93;;;8.00;99.90;;;;;;5054931;28;20044;-70
2023/02/13 01:04:17;;;;;;;22.13;13.77;;;8.00;99.90;;;;;;5054891;28;20120;-70
2023/02/13 01:06:43;;;;;;;23.50;13.82;;;8.00;99.90;;;;;;5054939;28;20037;-70
2023/02/13 01:09:09;;;;;;;21.77;13.77;;;7.90;99.90;;;;;;5054881;28;20044;-70
2023/02/13 01:11:34;;;;;;;22.08;14.45;;;7.80;99.90;;;;;;5054568;28;20037;-70
2023/02/13 01:14:00;;;;;;;22.38;13.13;;;7.80;99.90;;;;;;5054587;28;20068;-70
2023/02/13 01:16:25;;;;;;;25.70;14.95;;;7.70;99.90;;;;;;5054861;28;20037;-70
2023/02/13 01:18:51;;;;;;;22.35;14.20;;;7.70;99.90;;;;;;5054821;28;20076;-70
2023/02/13 01:21:19;;;;;;;23.05;13.80;;;7.70;99.90;;;;;;5054647;28;20036;-70
2023/02/13 01:23:45;;;;;;;24.27;15.40;;;7.60;99.90;;;;;;5054255;28;20644;-71
2023/02/13 01:26:17;;;;;;;24.42;15.27;;;7.70;99.90;;;;;;5054393;28;20119;-70
2023/02/13 01:28:43;;;;;;;25.45;15.27;;;7.70;99.90;;;;;;5054673;28;20036;-70
2023/02/13 01:31:08;;;;;;;25.65;14.95;;;7.70;99.90;;;;;;5054467;28;20094;-70
2023/02/13 01:33:34;;;;;;;25.27;13.88;;;7.60;99.90;;;;;;5054085;28;20094;-70
2023/02/13 01:36:05;;;;;;;24.80;15.68;;;7.70;99.90;;;;;;5054413;28;20051;-70
2023/02/13 01:38:31;;;;;;;26.27;14.70;;;7.70;99.90;;;;;;5054433;28;20052;-70
2023/02/13 01:40:56;;;;;;;25.08;14.60;;;7.60;99.90;;;;;;5054106;28;20048;-70
2023/02/13 01:43:23;;;;;;;30.88;16.50;;;7.60;99.90;;;;;;5053964;28;20044;-70
2023/02/13 01:45:52;;;;;;;28.33;15.55;;;7.60;99.90;;;;;;5054294;28;20041;-70
2023/02/13 01:48:22;;;;;;;26.05;15.10;;;7.70;99.90;;;;;;5054191;28;20087;-70
2023/02/13 01:50:51;;;;;;;29.60;15.77;;;7.60;99.90;;;;;;5054068;28;20044;-70
2023/02/13 01:53:31;;;;;;;26.55;14.55;;;7.60;99.90;;;;;;5053395;28;20049;-70
2023/02/13 01:56:04;;;;;;;28.38;15.80;;;7.70;99.90;;;;;;5054151;28;20036;-70
2023/02/13 01:58:33;;;;;;;29.65;15.90;;;7.70;99.90;;;;;;5053887;28;20385;-70
2023/02/13 02:01:00;;;;;;;30.85;17.30;;;7.70;99.90;;;;;;5053881;28;20124;-70
2023/02/13 02:03:35;;;;;;;32.20;16.85;;;7.70;99.90;;;;;;5052897;28;20037;-70
2023/02/13 02:06:02;;;;;;;29.85;16.40;;;7.70;99.90;;;;;;5053710;28;20052;-70
2023/02/13 02:08:29;;;;;;;30.55;16.15;;;7.60;99.90;;;;;;5053889;28;20041;-70
2023/02/13 02:11:01;;;;;;;30.60;17.00;;;7.60;99.90;;;;;;5053718;28;20045;-70
2023/02/13 02:13:26;;;;;;;31.98;18.30;;;7.70;99.90;;;;;;5053194;28;20048;-70
2023/02/13 02:15:52;;;;;;;29.67;16.73;;;7.60;99.90;;;;;;5053528;28;20041;-70
2023/02/13 02:18:22;;;;;;;31.27;16.92;;;7.70;99.90;;;;;;5053451;28;20064;-70
2023/02/13 02:21:09;;;;;;;30.48;16.20;;;7.60;99.90;;;;;;5053361;28;20390;-70
2023/02/13 02:24:08;;;;;;;30.13;15.38;;;7.70;99.90;;;;;;5052091;28;20045;-70
2023/02/13 02:27:05;;;;;;;28.15;16.23;;;7.60;99.90;;;;;;5053432;28;20044;-70
2023/02/13 02:29:53;;;;;;;26.90;15.32;;;7.60;99.90;;;;;;5053457;28;20041;-70
2023/02/13 02:32:24;;;;;;;26.23;16.08;;;7.60;99.90;;;;;;5052988;28;20044;-70
2023/02/13 02:34:53;;;;;;;28.30;15.60;;;7.60;99.90;;;;;;5053090;28;20074;-70
2023/02/13 02:37:31;;;;;;;26.83;15.63;;;7.70;99.90;;;;;;5053361;28;20037;-70
2023/02/13 02:40:25;;;;;;;30.02;15.73;;;7.70;99.90;;;;;;5053116;28;20416;-70
2023/02/13 02:43:15;;;;;;;28.33;15.57;;;7.60;99.90;;;;;;5051472;28;20044;-70
2023/02/13 02:46:07;;;;;;;28.05;15.10;;;7.60;99.90;;;;;;5053213;28;20057;-70
2023/02/13 02:51:37;;;;;;;27.30;15.50;;;7.70;99.90;;;;;;5052706;28;20126;-70
2023/02/13 02:56:59;;;;;;;33.15;15.60;;;7.70;99.90;;;;;;5041529;28;20106;-70
2023/02/13 03:07:44;;;;;;;24.73;14.40;;;7.70;99.90;;;;;;5052698;28;20079;-70
2023/02/13 03:13:27;;;;;;;32.05;17.40;;;7.80;99.90;;;;;;5051904;28;20060;-70
2023/02/13 03:24:49;;;;;;;28.75;15.35;;;7.80;99.90;;;;;;5052289;28;20060;-70
2023/02/13 03:30:16;;;;;;;30.30;15.57;;;7.70;99.90;;;;;;5052362;28;20060;-70
2023/02/13 03:32:55;;;;;;;28.52;15.73;;;7.80;99.90;;;;;;5051745;28;20041;-70
2023/02/13 03:38:46;;;;;;;29.88;16.23;;;7.70;99.90;;;;;;5052123;28;20107;-70
2023/02/13 03:41:28;;;;;;;30.17;17.27;;;7.80;99.90;;;;;;5051977;28;20098;-70
2023/02/13 03:44:01;;;;;;;30.42;16.05;;;7.80;99.90;;;;;;5051779;28;20052;-70
2023/02/13 03:46:31;;;;;;;31.33;15.95;;;7.70;99.90;;;;;;5052115;28;20041;-70
2023/02/13 03:51:52;;;;;;;33.05;17.08;;;7.60;99.90;;;;;;5051611;28;20124;-70
2023/02/13 04:00:02;;;;;;;28.77;16.98;;;7.50;99.90;;;;;;5051704;28;20047;-70
2023/02/13 04:02:32;;;;;;;29.55;15.75;;;7.60;99.90;;;;;;5051113;28;20067;-70
2023/02/13 04:05:16;;;;;;;30.55;16.38;;;7.50;99.90;;;;;;5050581;28;20052;-70
2023/02/13 04:07:41;;;;;;;;;;;7.60;99.90;;;;;;5050729;28;20055;-70
2023/02/13 04:10:11;;;;;;;26.27;14.25;;;7.40;99.90;;;;;;5051654;28;20299;-70
2023/02/13 04:12:49;;;;;;;25.17;14.88;;;7.60;99.90;;;;;;5034990;28;20496;-70
2023/02/13 04:15:28;;;;;;;29.95;16.23;;;7.50;99.90;;;;;;5031540;28;20568;-69
2023/02/13 04:18:10;;;;;;;29.65;17.10;;;7.50;99.90;;;;;;5031556;28;20389;-69
2023/02/13 04:20:35;;;;;;;30.02;15.90;;;7.50;99.90;;;;;;5031666;28;20045;-69
2023/02/13 04:23:08;;;;;;;28.92;15.40;;;7.60;99.90;;;;;;5031044;28;20034;-69
2023/02/13 04:25:37;;;;;;;28.98;16.25;;;7.50;99.90;;;;;;5031233;28;20045;-69
2023/02/13 04:28:02;;;;;;;29.08;16.40;;;7.60;99.90;;;;;;5031636;28;20034;-69
2023/02/13 04:30:28;;;;;;;30.13;15.32;;;7.60;99.90;;;;;;5031570;28;20113;-69
2023/02/13 04:32:54;;;;;;;28.33;16.40;;;7.50;99.90;;;;;;5031196;28;20525;-69
2023/02/13 04:35:20;;;;;;;28.25;14.63;;;7.60;99.90;;;;;;5031362;28;20037;-69
2023/02/13 04:37:45;;;;;;;26.95;15.57;;;7.50;99.90;;;;;;5031281;28;20033;-69
2023/02/13 04:40:11;;;;;;;29.38;15.93;;;7.60;99.90;;;;;;5031605;28;20043;-69
2023/02/13 04:42:36;;;;;;;28.17;16.40;;;7.50;99.90;;;;;;5031115;28;20390;-69
2023/02/13 04:45:02;;;;;;;27.10;14.77;;;7.60;99.90;;;;;;5031482;28;20045;-69
2023/02/13 04:47:27;;;;;;;26.70;15.52;;;7.50;99.90;;;;;;5031368;28;20444;-69
2023/02/13 04:49:53;;;;;;;27.25;14.70;;;7.60;99.90;;;;;;5031261;28;20050;-69
2023/02/13 04:52:18;;;;;;;28.35;15.32;;;7.50;99.90;;;;;;5030730;28;20037;-69
2023/02/13 04:54:44;;;;;;;29.77;15.93;;;7.50;99.90;;;;;;5031111;28;20046;-69
2023/02/13 04:57:10;;;;;;;28.90;16.25;;;7.50;99.90;;;;;;5031411;28;20036;-69
2023/02/13 04:59:35;;;;;;;28.08;15.18;;;7.50;99.90;;;;;;5031329;28;20090;-69
2023/02/13 05:02:00;;;;;;;28.30;16.27;;;7.60;99.90;;;;;;5031133;28;20041;-69
2023/02/13 05:04:27;;;;;;;30.17;16.80;;;7.40;99.90;;;;;;5031040;28;20166;-69
2023/02/13 05:06:53;;;;;;;27.80;15.90;;;7.50;99.90;;;;;;5031076;28;20041;-69
2023/02/13 05:09:19;;;;;;;29.30;15.52;;;7.50;99.90;;;;;;5031347;28;20416;-69
2023/02/13 05:11:44;;;;;;;28.67;16.33;;;7.50;99.90;;;;;;5029765;28;20044;-69
2023/02/13 05:14:10;;;;;;;30.90;17.55;;;7.50;99.90;;;;;;5030836;28;20041;-69
2023/02/13 05:16:36;;;;;;;29.05;15.85;;;7.50;99.90;;;;;;5031141;28;20037;-69
2023/02/13 05:19:02;;;;;;;37.30;17.80;;;7.50;99.90;;;;;;5030967;28;20436;-69
2023/02/13 05:24:11;;;;;;;32.35;17.23;;;7.50;99.90;;;;;;5030931;28;20123;-69
2023/02/13 05:26:37;;;;;;;30.77;15.32;;;7.40;99.90;;;;;;5031058;28;20041;-69
2023/02/13 05:29:18;;;;;;;29.83;17.08;;;7.50;99.90;;;;;;5031034;28;20046;-69
2023/02/13 05:31:55;;;;;;;33.65;17.02;;;7.60;99.90;;;;;;5030883;28;20050;-69
2023/02/13 05:34:22;;;;;;;26.38;15.13;;;7.40;99.90;;;;;;5030612;28;20048;-69
2023/02/13 05:36:48;;;;;;;31.05;15.93;;;7.50;99.90;;;;;;5030995;28;20041;-69
2023/02/13 05:39:14;;;;;;;29.58;16.05;;;7.40;99.90;;;;;;5034455;28;20034;-69
2023/02/13 05:41:41;;;;;;;28.00;15.48;;;7.40;99.90;;;;;;5034265;28;20396;-69
2023/02/13 05:44:06;;;;;;;33.72;16.45;;;7.40;99.90;;;;;;5033969;28;20045;-69
2023/02/13 05:46:32;;;;;;;29.58;16.52;;;7.40;99.90;;;;;;5034051;28;20046;-69
2023/02/13 05:48:58;;;;;;;29.70;16.40;;;7.50;99.90;;;;;;5034146;28;20083;-69
2023/02/13 05:51:23;;;;;;;25.75;15.30;;;7.40;99.90;;;;;;5033771;28;20037;-69
2023/02/13 05:53:49;;;;;;;29.67;15.23;;;7.40;99.90;;;;;;5033759;28;20084;-69
2023/02/13 05:56:14;;;;;;;33.17;16.88;;;7.40;99.90;;;;;;5034026;28;20041;-69
2023/02/13 05:58:40;;;;;;;32.97;17.17;;;7.20;99.90;;;;;;5033681;28;20088;-69
2023/02/13 06:01:06;;;;;;;31.65;18.30;;;7.40;99.90;;;;;;5033754;28;20041;-69
2023/02/13 06:03:32;;;;;;;33.90;17.92;;;7.40;99.90;;;;;;5033632;28;20037;-69
2023/02/13 06:05:58;;;;;;;33.35;17.92;;;7.40;99.90;;;;;;5033849;28;20528;-69
2023/02/13 06:08:24;;;;;;;30.80;17.42;;;7.40;99.90;;;;;;5033801;28;20073;-69
2023/02/13 06:10:50;;;;;;;31.75;18.73;;;7.30;99.90;;;;;;5033779;28;20045;-69
2023/02/13 06:13:16;;;;;;;30.13;16.70;;;7.40;99.90;;;;;;5033193;28;20497;-69
2023/02/13 06:15:42;;;;;;;28.67;16.50;;;7.30;99.90;;;;;;5033553;28;20041;-69
2023/02/13 06:18:08;;;;;;;29.42;16.30;;;7.40;99.90;;;;;;5033681;28;20113;-69
2023/02/13 06:20:33;;;;;;;30.13;15.63;;;7.50;99.90;;;;;;5033608;28;20067;-69
2023/02/13 06:22:59;;;;;;;31.33;16.75;;;7.50;99.90;;;;;;5033172;28;20033;-70
2023/02/13 06:25:25;;;;;;;31.27;16.55;;;7.40;99.90;;;;;;5033494;28;20076;-69
2023/02/13 06:27:50;;;;;;;31.88;16.70;;;7.30;99.90;;;;;;5033397;28;20037;-69
2023/02/13 06:30:17;;;;;;;33.22;18.17;;;7.50;99.90;;;;;;5033271;28;20464;-69
2023/02/13 06:32:44;;;;;;;31.55;17.60;;;7.30;99.90;;;;;;5033121;28;20106;-71
2023/02/13 06:35:10;;;;;;;29.27;16.75;;;7.20;99.90;;;;;;5033264;28;20084;-70
2023/02/13 06:37:35;;;;;;;27.70;16.88;;;7.20;99.90;;;;;;5033141;28;20073;-69
2023/02/13 06:40:01;;;;;;;32.03;18.73;;;7.20;99.90;;;;;;5033232;28;20037;-69
2023/02/13 06:42:26;;;;;;;30.35;16.60;;;7.30;99.90;;;;;;5032826;28;20088;-69
2023/02/13 06:44:52;;;;;;;29.75;17.58;;;7.30;99.90;;;;;;5032985;28;20041;-69
2023/02/13 06:47:18;;;;;;;30.35;17.10;;;7.20;99.90;;;;;;5040604;28;20045;-69
2023/02/13 06:49:43;;;;;;;28.38;16.75;;;7.20;99.90;;;;;;5052724;28;20405;-69
2023/02/13 06:52:09;;;;;;;33.05;17.55;;;7.20;99.90;;;;;;5052539;28;20033;-69
2023/02/13 06:54:34;;;;;;;29.75;16.38;;;7.30;99.90;;;;;;5052841;28;20071;-73
2023/02/13 06:57:00;;;;;;;33.47;18.25;;;7.20;99.90;;;;;;5052854;28;20044;-72
2023/02/13 06:59:25;;;;;;;28.73;16.90;;;7.20;99.90;;;;;;5052350;28;20041;-72
2023/02/13 07:01:51;;;;;;;34.45;17.52;;;7.30;99.90;;;;;;5052892;28;20045;-72
2023/02/13 07:04:17;;;;;;;34.33;18.70;;;7.30;99.90;;;;;;5051343;28;20037;-72
2023/02/13 07:06:42;;;;;;;31.35;18.30;;;7.30;99.90;;;;;;5052749;28;20100;-72
2023/02/13 07:09:08;;;;;;;29.38;17.50;;;7.20;99.90;;;;;;5052791;28;20040;-72
2023/02/13 07:11:33;;;;;;;29.80;17.77;;;7.30;99.90;;;;;;5052625;28;20095;-72
2023/02/13 07:13:59;;;;;;;28.58;17.02;;;7.20;99.90;;;;;;5052100;28;20045;-73
2023/02/13 07:16:24;;;;;;;28.80;18.15;;;7.30;99.90;;;;;;5052502;28;20037;-73
2023/02/13 07:18:50;;;;;;;27.30;16.23;;;7.20;99.90;;;;;;5052627;28;20041;-73
2023/02/13 07:21:15;;;;;;;31.83;19.40;;;7.20;99.90;;;;;;5052529;28;20489;-73
2023/02/13 07:23:41;;;;;;;27.95;17.25;;;7.30;99.90;;;;;;5050823;28;20459;-72
2023/02/13 07:26:06;;;;;;;30.10;17.75;;;7.20;99.90;;;;;;5052257;28;20583;-72
2023/02/13 07:28:32;;;;;;;32.08;17.92;;;7.20;99.90;;;;;;5051211;28;20051;-72
2023/02/13 07:31:02;;;;;;;28.88;17.55;;;7.20;99.90;;;;;;5052111;28;20057;-73
2023/02/13 07:33:28;;;;;;;32.65;16.83;;;7.20;99.90;;;;;;5051818;28;20060;-73
2023/02/13 07:35:53;;;;;;;29.17;15.73;;;7.30;99.90;;;;;;5052234;28;20037;-73
2023/02/13 07:38:19;;;;;;;30.30;17.65;;;7.20;99.90;;;;;;5052158;28;20040;-72
2023/02/13 07:40:45;;;;;;;29.20;16.63;;;7.20;99.90;;;;;;5051982;28;20075;-72
2023/02/13 07:43:12;;;;;;;30.52;16.80;;;7.20;99.90;;;;;;5051534;28;20153;-72
2023/02/13 07:45:37;;;;;;;28.17;16.88;;;7.20;99.90;;;;;;5052081;28;20059;-72
2023/02/13 07:48:03;;;;;;;27.45;17.23;;;7.20;99.90;;;;;;5051902;28;20037;-73
2023/02/13 07:50:29;;;;;;;31.23;17.63;;;7.20;99.90;;;;;;5051787;28;20079;-72
2023/02/13 07:52:56;;;;;;;28.38;16.10;;;7.20;99.90;;;;;;5051461;28;20381;-72
2023/02/13 07:55:22;;;;;;;29.42;16.85;;;7.20;99.90;;;;;;5051725;28;20041;-72
2023/02/13 07:57:48;;;;;;;29.77;17.70;;;7.20;99.90;;;;;;5051673;28;20037;-72
2023/02/13 08:00:14;;;;;;;30.35;17.52;;;7.20;99.90;;;;;;5049992;28;20037;-72
2023/02/13 08:02:40;;;;;;;28.58;16.30;;;7.30;99.90;;;;;;5051177;28;20041;-73
2023/02/13 08:05:06;;;;;;;30.10;17.42;;;7.20;99.90;;;;;;5051648;28;20143;-73
2023/02/13 08:07:32;;;;;;;32.45;19.10;;;7.20;99.90;;;;;;5051635;28;20499;-72
2023/02/13 08:12:42;;;;;;;27.40;16.88;;;7.30;99.90;;;;;;5051134;28;20578;-72
2023/02/13 08:15:14;;;;;;;28.58;16.08;;;7.30;99.90;;;;;;5051365;28;20463;-72
2023/02/13 08:17:40;;;;;;;33.83;18.05;;;7.30;99.90;;;;;;5051539;28;20091;-72
2023/02/13 08:20:09;;;;;;;31.60;18.65;;;7.30;99.90;;;;;;5051590;28;20447;-72
2023/02/13 08:22:36;;;;;;;29.38;18.35;;;7.30;99.90;;;;;;5051074;28;20116;-72
2023/02/13 08:25:03;;;;;;;29.13;17.13;;;7.30;99.90;;;;;;5051404;28;20080;-72
2023/02/13 08:27:29;;;;;;;27.48;16.70;;;7.30;99.90;;;;;;5051610;28;20049;-72
2023/02/13 08:29:56;;;;;;;29.17;17.60;;;7.30;99.90;;;;;;5050352;28;20041;-72
2023/02/13 08:32:23;;;;;;;29.30;18.02;;;7.30;99.90;;;;;;5049757;28;20119;-73
2023/02/13 08:34:48;;;;;;;29.00;18.13;;;7.30;99.90;;;;;;5051352;28;20052;-73
2023/02/13 08:37:14;;;;;;;30.98;17.77;;;7.40;99.90;;;;;;5051357;28;20037;-72
2023/02/13 08:39:40;;;;;;;26.15;16.30;;;7.30;99.90;;;;;;5051183;28;20060;-72
2023/02/13 08:42:06;;;;;;;29.77;18.05;;;7.40;99.90;;;;;;5051139;28;20495;-72
2023/02/13 08:44:31;;;;;;;29.42;18.17;;;7.40;99.90;;;;;;5051238;28;20040;-72
2023/02/13 08:46:57;;;;;;;28.60;17.75;;;7.40;99.90;;;;;;5049943;28;20045;-72
2023/02/13 08:49:23;;;;;;;30.05;17.70;;;7.40;99.90;;;;;;5051139;28;20052;-72
2023/02/13 08:51:49;;;;;;;29.00;17.92;;;7.40;99.90;;;;;;5051002;28;20041;-72
2023/02/13 08:54:15;;;;;;;29.67;18.17;;;7.40;99.90;;;;;;5050760;28;20091;-72
2023/02/13 08:56:41;;;;;;;26.25;16.40;;;7.40;99.90;;;;;;5051277;28;20045;-72
2023/02/13 08:59:07;;;;;;;33.28;18.90;;;7.40;99.90;;;;;;5051162;28;20037;-72
2023/02/13 09:01:32;;;;;;;27.58;16.45;;;7.40;99.90;;;;;;5050954;28;20033;-73
2023/02/13 09:03:58;;;;;;;30.80;17.50;;;7.40;99.90;;;;;;5050876;28;20037;-73
2023/02/13 09:06:25;;;;;;;31.65;18.10;;;7.40;99.90;;;;;;5045798;28;20116;-74
2023/02/13 09:08:51;;;;;;;30.38;18.75;;;7.40;99.90;;;;;;5036859;28;20033;-73
2023/02/13 09:11:18;;;;;;;29.85;17.17;;;7.50;99.90;;;;;;5049304;28;20488;-72
2023/02/13 09:13:44;;;;;;;29.48;16.80;;;7.50;99.90;;;;;;5052046;28;20095;-72
2023/02/13 09:16:10;;;;;;;33.20;19.05;;;7.50;99.90;;;;;;5054281;28;20036;-73
2023/02/13 09:18:36;;;;;;;33.33;18.98;;;7.50;99.90;;;;;;5053216;28;20064;-73
2023/02/13 09:21:07;;;;;;;31.08;17.85;;;7.50;99.90;;;;;;5054323;28;20064;-72
2023/02/13 09:23:35;;;;;;;26.20;16.25;;;7.50;99.90;;;;;;5053729;28;20040;-73
2023/02/13 09:26:02;;;;;;;31.65;18.85;;;7.50;99.90;;;;;;5054327;28;20033;-72
2023/02/13 09:28:32;;;;;;;26.77;18.45;;;7.50;99.90;;;;;;5054202;28;20045;-72
2023/02/13 09:30:57;;;;;;;29.27;16.35;;;7.50;99.90;;;;;;5053002;28;20037;-72
2023/02/13 09:33:24;;;;;;;28.05;16.42;;;7.50;99.90;;;;;;5052638;28;20503;-72
2023/02/13 09:35:50;;;;;;;27.20;16.20;;;7.60;99.90;;;;;;5053878;28;20060;-72
2023/02/13 09:38:15;;;;;;;28.70;16.88;;;7.50;99.90;;;;;;5054315;28;20087;-73
2023/02/13 09:40:55;;;;;;;28.83;17.70;;;7.60;99.90;;;;;;5053674;28;20396;-73
2023/02/13 09:43:28;;;;;;;32.60;18.42;;;7.50;99.90;;;;;;5053582;28;20040;-74
2023/02/13 09:45:57;;;;;;;28.58;16.08;;;7.60;99.90;;;;;;5053719;28;20100;-74
2023/02/13 09:48:28;;;;;;;27.17;15.93;;;7.60;99.90;;;;;;5053914;28;20033;-73
2023/02/13 09:50:55;;;;;;;28.27;15.95;;;7.60;99.90;;;;;;5052763;28;20035;-73
2023/02/13 09:53:23;;;;;;;32.45;17.90;;;7.60;99.90;;;;;;5053180;28;20116;-73
2023/02/13 09:55:58;;;;;;;33.28;19.42;;;7.70;99.90;;;;;;5053594;28;20041;-73
2023/02/13 09:58:37;;;;;;;29.25;16.98;;;7.60;99.90;;;;;;5052535;28;20041;-73
2023/02/13 10:01:08;;;;;;;30.33;18.88;;;7.60;99.90;;;;;;5053761;28;20033;-73
2023/02/13 10:03:51;;;;;;;29.65;18.40;;;7.70;99.90;;;;;;5053403;28;20037;-74
2023/02/13 10:06:48;;;;;;;29.95;16.85;;;7.70;99.90;;;;;;5053521;28;20400;-73
2023/02/13 10:09:53;;;;;;;35.97;19.52;;;7.70;99.90;;;;;;5053199;28;20041;-73
2023/02/13 10:12:50;;;;;;;30.27;17.60;;;7.70;99.90;;;;;;5051825;28;20087;-73
2023/02/13 10:15:36;;;;;;;36.15;18.98;;;7.60;99.90;;;;;;5041633;28;20055;-73
2023/02/13 10:18:08;;;;;;;33.22;19.42;;;7.70;99.90;;;;;;5053294;28;20033;-73
2023/02/13 10:20:44;;;;;;;31.30;19.15;;;7.70;99.90;;;;;;5053459;28;20389;-73
2023/02/13 10:23:35;;;;;;;35.35;19.77;;;7.70;99.90;;;;;;5050853;28;20037;-73
2023/02/13 10:26:09;;;;;;;32.15;19.02;;;7.70;99.90;;;;;;5051855;28;20086;-73
2023/02/13 10:28:37;;;;;;;30.48;18.00;;;7.70;99.90;;;;;;5053108;28;20045;-73
2023/02/13 10:31:23;;;;;;;33.85;19.20;;;7.70;99.90;;;;;;5053239;28;20033;-73
2023/02/13 10:33:59;;;;;;;29.52;18.67;;;7.80;99.90;;;;;;5038215;28;20057;-73
2023/02/13 10:36:29;;;;;;;31.45;18.35;;;7.70;99.90;;;;;;5052910;28;20048;-73
2023/02/13 10:39:18;;;;;;;28.67;17.77;;;7.70;99.90;;;;;;5038950;28;20029;-73
2023/02/13 10:41:47;;;;;;;29.70;18.45;;;7.80;99.90;;;;;;5053053;28;20112;-73
2023/02/13 10:44:28;;;;;;;31.65;18.73;;;7.80;99.90;;;;;;5052454;28;20041;-73
2023/02/13 10:47:21;;;;;;;30.90;18.45;;;7.90;99.90;;;;;;5053295;28;20048;-73
2023/02/13 10:49:59;;;;;;;30.23;17.48;;;7.90;99.90;;;;;;5053004;28;20492;-74
2023/02/13 10:53:02;;;;;;;31.88;17.02;;;7.90;99.90;;;;;;5034639;28;20102;-73
2023/02/13 10:55:54;;;;;;;30.40;16.73;;;7.90;99.90;;;;;;5051605;28;20048;-74
2023/02/13 10:58:41;;;;;;;36.00;17.33;;;7.90;99.90;;;;;;5051654;28;20350;-73
2023/02/13 11:01:32;;;;;;;32.20;17.92;;;7.90;99.90;;;;;;5052800;28;20372;-73
2023/02/13 11:04:10;;;;;;;31.95;16.98;;;7.90;99.90;;;;;;5052465;28;20492;-73
2023/02/13 11:06:39;;;;;;;35.42;18.02;;;7.90;99.90;;;;;;5051692;28;20553;-73
2023/02/13 11:09:08;;;;;;;31.02;17.08;;;8.00;99.90;;;;;;5052783;28;20445;-73
2023/02/13 11:11:39;;;;;;;30.25;17.85;;;8.00;99.90;;;;;;5052529;28;20037;-73
2023/02/13 11:14:13;;;;;;;31.08;17.83;;;8.00;99.90;;;;;;5051843;28;20485;-73
2023/02/13 11:17:03;;;;;;;28.10;18.13;;;8.10;99.90;;;;;;5048382;28;20143;-73
2023/02/13 11:19:34;;;;;;;28.85;17.55;;;8.10;99.90;;;;;;5048297;28;20530;-73
2023/02/13 11:22:32;;;;;;;27.65;16.67;;;8.10;99.90;;;;;;5048438;28;20072;-73
2023/02/13 11:25:21;;;;;;;32.22;16.80;;;8.10;99.90;;;;;;5048931;28;20555;-73
2023/02/13 11:27:49;;;;;;;25.25;16.25;;;8.10;99.90;;;;;;5052394;28;20084;-72
2023/02/13 11:30:32;;;;;;;31.85;16.58;;;8.10;99.90;;;;;;5052362;28;20072;-72
2023/02/13 11:33:17;;;;;;;27.73;17.10;;;8.10;99.90;;;;;;5052203;28;20045;-73
2023/02/13 11:35:44;;;;;;;29.15;16.92;;;8.10;99.90;;;;;;5051392;28;20037;-73
2023/02/13 11:38:09;;;;;;;32.05;18.13;;;8.10;99.90;;;;;;5052173;28;20041;-73
2023/02/13 11:40:36;;;;;;;31.63;17.95;;;8.10;99.90;;;;;;5052120;28;20403;-73
2023/02/13 11:43:05;;;;;;;29.75;18.13;;;8.20;99.90;;;;;;5051547;28;20067;-73
2023/02/13 11:45:31;;;;;;;28.70;16.70;;;8.20;99.90;;;;;;5052152;28;20033;-73
2023/02/13 11:47:57;;;;;;;30.50;18.35;;;8.30;99.90;;;;;;5050657;28;20051;-73
2023/02/13 11:50:30;;;;;;;28.98;17.50;;;8.20;99.90;;;;;;5050829;28;20041;-73
2023/02/13 11:53:03;;;;;;;27.73;16.85;;;8.20;99.90;;;;;;5051669;28;20393;-73
2023/02/13 11:55:31;;;;;;;28.17;16.33;;;8.30;99.90;;;;;;5051750;28;20041;-73
2023/02/13 11:58:09;;;;;;;30.27;17.33;;;8.20;99.90;;;;;;5051789;28;20665;-73
2023/02/13 12:00:38;;;;;;;27.05;16.42;;;8.30;99.90;;;;;;5052039;28;20060;-72
2023/02/13 12:03:26;;;;;;;29.30;17.95;;;8.30;99.90;;;;;;5050310;28;20044;-72
2023/02/13 12:06:04;;;;;;;26.33;14.77;;;8.30;99.90;;;;;;5050485;28;20037;-71
2023/02/13 12:08:32;;;;;;;30.55;17.88;;;8.40;99.90;;;;;;5051519;28;20079;-72
2023/02/13 12:11:00;;;;;;;25.48;15.75;;;8.50;99.90;;;;;;5051452;28;20090;-71
2023/02/13 12:13:32;;;;;;;23.70;14.82;;;8.40;99.90;;;;;;5051113;28;20102;-71
2023/02/13 12:16:34;;;;;;;28.55;15.80;;;8.50;99.90;;;;;;5051309;28;20037;-71
2023/02/13 12:19:05;;;;;;;30.75;16.17;;;8.50;99.90;;;;;;5049823;28;20059;-72
2023/02/13 12:21:45;;;;;;;30.00;17.35;;;8.50;99.90;;;;;;5051023;28;20040;-71
2023/02/13 12:25:10;;;;;;;28.45;15.95;;;8.50;99.90;;;;;;5050926;28;20032;-71
2023/02/13 12:27:56;;;;;;;29.30;17.02;;;8.60;99.90;;;;;;5008974;28;20053;-71
2023/02/13 12:30:43;;;;;;;28.83;16.30;;;8.60;99.90;;;;;;5028507;28;20041;-70
2023/02/13 12:33:38;;;;;;;29.55;15.90;;;8.70;99.90;;;;;;5045302;28;20087;-71
2023/02/13 12:36:21;;;;;;;27.25;16.60;;;8.70;99.90;;;;;;5051395;28;20570;-70
2023/02/13 12:39:05;;;;;;;;;;;8.70;99.90;;;;;;5051726;28;20079;-71
2023/02/13 12:41:44;;;;;;;27.23;15.75;;;8.70;99.90;;;;;;5051179;28;20509;-72
2023/02/13 12:44:27;;;;;;;26.45;14.82;;;8.70;99.90;;;;;;5050763;28;20427;-72
2023/02/13 12:47:27;;;;;;;25.60;15.73;;;8.70;99.90;;;;;;5052890;28;20033;-73
2023/02/13 12:49:58;;;;;;;29.27;17.48;;;8.70;99.90;;;;;;5053947;28;20049;-73
2023/02/13 12:52:55;;;;;;;27.55;16.17;;;8.60;99.90;;;;;;5053813;28;20499;-74
2023/02/13 12:56:09;;;;;;;34.72;18.17;;;8.70;99.90;;;;;;5055092;28;20052;-73
2023/02/13 12:58:41;;;;;;;;;;;8.70;99.90;;;;;;5055765;28;20045;-73
2023/02/13 13:01:23;;;;;;;29.08;16.63;;;8.60;99.90;;;;;;5055147;28;19917;-73
2023/02/13 13:04:14;;;;;;;30.63;17.07;;;8.70;99.90;;;;;;5054824;28;20388;-73
2023/02/13 13:07:06;;;;;;;28.98;17.52;;;8.70;99.90;;;;;;5055138;28;20324;-73
2023/02/13 13:09:44;;;;;;;30.90;18.05;;;8.70;99.90;;;;;;5054959;28;20128;-73
2023/02/13 13:12:37;;;;;;;31.30;18.42;;;8.70;99.90;;;;;;5054658;28;20041;-73
2023/02/13 13:15:13;;;;;;;30.35;16.98;;;8.80;99.90;;;;;;5054709;28;20041;-73
2023/02/13 13:17:58;;;;;;;29.95;17.95;;;8.80;99.90;;;;;;5054446;28;20047;-76
2023/02/13 13:21:01;;;;;;;30.90;18.27;;;8.90;99.90;;;;;;5054556;28;20045;-75
2023/02/13 13:23:45;;;;;;;30.15;18.02;;;9.10;99.90;;;;;;5054277;28;20503;-76
2023/02/13 13:26:14;;;;;;;31.38;18.98;;;9.10;99.90;;;;;;5054557;28;20136;-75
2023/02/13 13:28:43;;;;;;;32.58;19.23;;;9.20;99.90;;;;;;5054378;28;20041;-76
2023/02/13 13:31:10;;;;;;;32.08;19.13;;;9.30;99.90;;;;;;5053567;28;20413;-75
2023/02/13 13:33:40;;;;;;;34.42;19.42;;;9.30;99.90;;;;;;5054049;28;20045;-76
2023/02/13 13:36:35;;;;;;;33.20;19.05;;;9.30;99.90;;;;;;5052762;28;20055;-75
2023/02/13 13:39:35;;;;;;;29.30;17.67;;;9.40;99.90;;;;;;5054326;28;20068;-75
2023/02/13 13:42:08;;;;;;;33.35;19.27;;;9.40;99.90;;;;;;5053964;28;20535;-75
2023/02/13 13:45:06;;;;;;;33.13;19.70;;;9.50;99.90;;;;;;5054324;28;20040;-75
2023/02/13 13:47:45;;;;;;;33.67;20.60;;;9.60;99.90;;;;;;5028365;28;20161;-75